sensor_id;sensor_type;location;lat;lon;timestamp;temperature;humidity
25346;DHT22;13300;51.032;3.710;2023-07-30T00:00:50;16.00;99.90
25346;DHT22;13300;51.032;3.710;2023-07-30T00:03:16;16.10;99.90
25346;DHT22;13300;51.032;3.710;2023-07-30T00:05:41;16.10;99.90
25346;DHT22;13300;51.032;3.710;2023-07-30T00:08:07;16.10;99.90
25346;DHT22;13300;51.032;3.710;2023-07-30T00:10:35;16.10;99.90
25346;DHT22;13300;51.032;3.710;2023-07-30T00:13:01;16.10;99.90
25346;DHT22;13300;51.032;3.710;2023-07-30T00:15:27;16.10;99.90
25346;DHT22;13300;51.032;3.710;2023-07-30T00:17:53;16.00;99.90
25346;DHT22;13300;51.032;3.710;2023-07-30T00:20:18;16.00;99.90
25346;DHT22;13300;51.032;3.710;2023-07-30T00:22:45;15.90;99.90
25346;DHT22;13300;51.032;3.710;2023-07-30T00:25:10;15.90;99.90
25346;DHT22;13300;51.032;3.710;2023-07-30T00:27:36;15.90;99.90
25346;DHT22;13300;51.032;3.710;2023-07-30T00:30:02;15.90;99.90
25346;DHT22;13300;51.032;3.710;2023-07-30T00:32:28;15.90;99.90
25346;DHT22;13300;51.032;3.710;2023-07-30T00:34:53;15.90;99.90
25346;DHT22;13300;51.032;3.710;2023-07-30T00:37:19;15.90;99.90
25346;DHT22;13300;51.032;3.710;2023-07-30T00:39:45;15.90;99.90
25346;DHT22;13300;51.032;3.710;2023-07-30T00:42:10;15.80;99.90
25346;DHT22;13300;51.032;3.710;2023-07-30T00:44:36;15.80;99.90
25346;DHT22;13300;51.032;3.710;2023-07-30T00:47:02;15.90;99.90
25346;DHT22;13300;51.032;3.710;2023-07-30T00:49:28;15.90;99.90
25346;DHT22;13300;51.032;3.710;2023-07-30T00:51:54;15.80;99.90
25346;DHT22;13300;51.032;3.710;2023-07-30T00:54:22;15.90;99.90
25346;DHT22;13300;51.032;3.710;2023-07-30T00:56:52;15.90;99.90
25346;DHT22;13300;51.032;3.710;2023-07-30T00:59:22;15.90;99.90
25346;DHT22;13300;51.032;3.710;2023-07-30T01:01:47;15.90;99.90
25346;DHT22;13300;51.032;3.710;2023-07-30T01:04:17;15.90;99.90
25346;DHT22;13300;51.032;3.710;2023-07-30T01:06:43;15.90;99.90
25346;DHT22;13300;51.032;3.710;2023-07-30T01:09:09;15.90;99.90
25346;DHT22;13300;51.032;3.710;2023-07-30T01:11:36;15.80;99.90
25346;DHT22;13300;51.032;3.710;2023-07-30T01:14:05;15.80;99.90
25346;DHT22;13300;51.032;3.710;2023-07-30T01:16:31;15.90;99.90
25346;DHT22;13300;51.032;3.710;2023-07-30T01:18:56;15.90;99.90
25346;DHT22;13300;51.032;3.710;2023-07-30T01:21:24;15.90;99.90
25346;DHT22;13300;51.032;3.710;2023-07-30T01:23:50;15.90;99.90
25346;DHT22;13300;51.032;3.710;2023-07-30T01:26:21;15.80;99.90
25346;DHT22;13300;51.032;3.710;2023-07-30T01:28:49;15.80;99.90
25346;DHT22;13300;51.032;3.710;2023-07-30T01:31:17;15.80;99.90
25346;DHT22;13300;51.032;3.710;2023-07-30T01:33:46;15.70;99.90
25346;DHT22;13300;51.032;3.710;2023-07-30T01:36:15;15.70;99.90
25346;DHT22;13300;51.032;3.710;2023-07-30T01:38:42;15.70;99.90
25346;DHT22;13300;51.032;3.710;2023-07-30T01:41:08;15.60;99.90
25346;DHT22;13300;51.032;3.710;2023-07-30T01:43:34;15.60;99.90
25346;DHT22;13300;51.032;3.710;2023-07-30T01:46:00;15.60;99.90
25346;DHT22;13300;51.032;3.710;2023-07-30T01:48:26;15.60;99.90
25346;DHT22;13300;51.032;3.710;2023-07-30T01:50:52;15.60;99.90
25346;DHT22;13300;51.032;3.710;2023-07-30T01:53:18;15.60;99.90
25346;DHT22;13300;51.032;3.710;2023-07-30T01:55:43;15.50;99.90
25346;DHT22;13300;51.032;3.710;2023-07-30T01:58:12;15.60;99.90
25346;DHT22;13300;51.032;3.710;2023-07-30T02:00:38;15.50;99.90
25346;DHT22;13300;51.032;3.710;2023-07-30T02:03:04;15.60;99.90
25346;DHT22;13300;51.032;3.710;2023-07-30T02:05:30;15.60;99.90
25346;DHT22;13300;51.032;3.710;2023-07-30T02:07:56;15.60;99.90
25346;DHT22;13300;51.032;3.710;2023-07-30T02:10:22;15.70;99.90
25346;DHT22;13300;51.032;3.710;2023-07-30T02:12:48;15.60;99.90
25346;DHT22;13300;51.032;3.710;2023-07-30T02:15:14;15.60;99.90
25346;DHT22;13300;51.032;3.710;2023-07-30T02:17:40;15.60;99.90
25346;DHT22;13300;51.032;3.710;2023-07-30T02:20:06;15.60;99.90
25346;DHT22;13300;51.032;3.710;2023-07-30T02:22:32;15.50;99.90
25346;DHT22;13300;51.032;3.710;2023-07-30T02:24:57;15.60;99.90
25346;DHT22;13300;51.032;3.710;2023-07-30T02:27:23;15.60;99.90
25346;DHT22;13300;51.032;3.710;2023-07-30T02:29:49;15.50;99.90
25346;DHT22;13300;51.032;3.710;2023-07-30T02:32:15;15.60;99.90
25346;DHT22;13300;51.032;3.710;2023-07-30T02:34:41;15.60;99.90
25346;DHT22;13300;51.032;3.710;2023-07-30T02:37:07;15.60;99.90
25346;DHT22;13300;51.032;3.710;2023-07-30T02:39:32;15.50;99.90
25346;DHT22;13300;51.032;3.710;2023-07-30T02:41:58;15.70;99.90
25346;DHT22;13300;51.032;3.710;2023-07-30T02:44:24;15.70;99.90
25346;DHT22;13300;51.032;3.710;2023-07-30T02:46:49;15.70;99.90
25346;DHT22;13300;51.032;3.710;2023-07-30T02:49:15;15.70;99.90
25346;DHT22;13300;51.032;3.710;2023-07-30T02:51:40;15.70;99.90
25346;DHT22;13300;51.032;3.710;2023-07-30T02:54:08;15.60;99.90
25346;DHT22;13300;51.032;3.710;2023-07-30T02:56:35;15.50;99.90
25346;DHT22;13300;51.032;3.710;2023-07-30T02:59:01;15.60;99.90
25346;DHT22;13300;51.032;3.710;2023-07-30T03:01:27;15.60;99.90
25346;DHT22;13300;51.032;3.710;2023-07-30T03:03:52;15.70;99.90
25346;DHT22;13300;51.032;3.710;2023-07-30T03:06:18;15.70;99.90
25346;DHT22;13300;51.032;3.710;2023-07-30T03:08:44;15.70;99.90
25346;DHT22;13300;51.032;3.710;2023-07-30T03:11:09;15.70;99.90
25346;DHT22;13300;51.032;3.710;2023-07-30T03:13:35;15.70;99.90
25346;DHT22;13300;51.032;3.710;2023-07-30T03:16:01;15.60;99.90
25346;DHT22;13300;51.032;3.710;2023-07-30T03:18:26;15.60;99.90
25346;DHT22;13300;51.032;3.710;2023-07-30T03:20:59;15.50;99.90
25346;DHT22;13300;51.032;3.710;2023-07-30T03:23:25;15.50;99.90
25346;DHT22;13300;51.032;3.710;2023-07-30T03:25:51;15.60;99.90
25346;DHT22;13300;51.032;3.710;2023-07-30T03:28:17;15.60;99.90
25346;DHT22;13300;51.032;3.710;2023-07-30T03:30:42;15.60;99.90
25346;DHT22;13300;51.032;3.710;2023-07-30T03:33:08;15.60;99.90
25346;DHT22;13300;51.032;3.710;2023-07-30T03:35:34;15.60;99.90
25346;DHT22;13300;51.032;3.710;2023-07-30T03:37:59;15.60;99.90
25346;DHT22;13300;51.032;3.710;2023-07-30T03:40:25;15.60;99.90
25346;DHT22;13300;51.032;3.710;2023-07-30T03:42:51;15.70;99.90
25346;DHT22;13300;51.032;3.710;2023-07-30T03:45:16;15.70;99.90
25346;DHT22;13300;51.032;3.710;2023-07-30T03:47:42;15.70;99.90
25346;DHT22;13300;51.032;3.710;2023-07-30T03:50:08;15.70;99.90
25346;DHT22;13300;51.032;3.710;2023-07-30T03:52:34;15.70;99.90
25346;DHT22;13300;51.032;3.710;2023-07-30T03:54:59;15.70;99.90
25346;DHT22;13300;51.032;3.710;2023-07-30T03:57:25;15.70;99.90
25346;DHT22;13300;51.032;3.710;2023-07-30T03:59:51;15.70;99.90
25346;DHT22;13300;51.032;3.710;2023-07-30T04:02:16;15.80;99.90
25346;DHT22;13300;51.032;3.710;2023-07-30T04:04:43;15.80;99.90
25346;DHT22;13300;51.032;3.710;2023-07-30T04:07:13;15.80;99.90
25346;DHT22;13300;51.032;3.710;2023-07-30T04:09:39;15.80;99.90
25346;DHT22;13300;51.032;3.710;2023-07-30T04:12:05;15.90;99.90
25346;DHT22;13300;51.032;3.710;2023-07-30T04:14:31;15.90;99.90
25346;DHT22;13300;51.032;3.710;2023-07-30T04:16:57;15.80;99.90
25346;DHT22;13300;51.032;3.710;2023-07-30T04:19:22;15.80;99.90
25346;DHT22;13300;51.032;3.710;2023-07-30T04:21:48;15.80;99.90
25346;DHT22;13300;51.032;3.710;2023-07-30T04:24:14;15.90;99.90
25346;DHT22;13300;51.032;3.710;2023-07-30T04:26:39;15.90;99.90
25346;DHT22;13300;51.032;3.710;2023-07-30T04:29:05;16.00;99.90
25346;DHT22;13300;51.032;3.710;2023-07-30T04:31:31;16.00;99.90
25346;DHT22;13300;51.032;3.710;2023-07-30T04:33:58;16.00;99.90
25346;DHT22;13300;51.032;3.710;2023-07-30T04:36:24;16.00;99.90
25346;DHT22;13300;51.032;3.710;2023-07-30T04:38:50;16.00;99.90
25346;DHT22;13300;51.032;3.710;2023-07-30T04:41:15;16.10;99.90
25346;DHT22;13300;51.032;3.710;2023-07-30T04:43:43;16.20;99.90
25346;DHT22;13300;51.032;3.710;2023-07-30T04:46:09;16.20;99.90
25346;DHT22;13300;51.032;3.710;2023-07-30T04:48:36;16.20;99.90
25346;DHT22;13300;51.032;3.710;2023-07-30T04:51:09;16.10;99.90
25346;DHT22;13300;51.032;3.710;2023-07-30T04:53:35;16.10;99.90
25346;DHT22;13300;51.032;3.710;2023-07-30T04:56:01;16.00;99.90
25346;DHT22;13300;51.032;3.710;2023-07-30T04:58:26;16.20;99.90
25346;DHT22;13300;51.032;3.710;2023-07-30T05:00:52;16.20;99.90
25346;DHT22;13300;51.032;3.710;2023-07-30T05:03:17;16.30;99.90
25346;DHT22;13300;51.032;3.710;2023-07-30T05:05:43;16.20;99.90
25346;DHT22;13300;51.032;3.710;2023-07-30T05:08:09;16.20;99.90
25346;DHT22;13300;51.032;3.710;2023-07-30T05:10:35;16.30;99.90
25346;DHT22;13300;51.032;3.710;2023-07-30T05:13:00;16.30;99.90
25346;DHT22;13300;51.032;3.710;2023-07-30T05:15:26;16.40;99.90
25346;DHT22;13300;51.032;3.710;2023-07-30T05:17:52;16.40;99.90
25346;DHT22;13300;51.032;3.710;2023-07-30T05:20:18;16.40;99.90
25346;DHT22;13300;51.032;3.710;2023-07-30T05:22:44;16.50;99.90
25346;DHT22;13300;51.032;3.710;2023-07-30T05:25:09;16.60;99.90
25346;DHT22;13300;51.032;3.710;2023-07-30T05:27:35;16.60;99.90
25346;DHT22;13300;51.032;3.710;2023-07-30T05:30:01;16.60;99.90
25346;DHT22;13300;51.032;3.710;2023-07-30T05:32:27;16.50;99.90
25346;DHT22;13300;51.032;3.710;2023-07-30T05:34:53;16.50;99.90
25346;DHT22;13300;51.032;3.710;2023-07-30T05:37:19;16.60;99.90
25346;DHT22;13300;51.032;3.710;2023-07-30T05:39:45;16.40;99.90
25346;DHT22;13300;51.032;3.710;2023-07-30T05:42:10;16.30;99.90
25346;DHT22;13300;51.032;3.710;2023-07-30T05:44:36;16.50;99.90
25346;DHT22;13300;51.032;3.710;2023-07-30T05:47:02;16.60;99.90
25346;DHT22;13300;51.032;3.710;2023-07-30T05:49:28;16.50;99.90
25346;DHT22;13300;51.032;3.710;2023-07-30T05:51:54;16.60;99.90
25346;DHT22;13300;51.032;3.710;2023-07-30T05:54:20;16.70;99.90
25346;DHT22;13300;51.032;3.710;2023-07-30T05:56:45;16.70;99.90
25346;DHT22;13300;51.032;3.710;2023-07-30T05:59:11;16.80;99.90
25346;DHT22;13300;51.032;3.710;2023-07-30T06:01:37;16.80;99.90
25346;DHT22;13300;51.032;3.710;2023-07-30T06:04:02;16.80;99.90
25346;DHT22;13300;51.032;3.710;2023-07-30T06:06:29;16.80;99.90
25346;DHT22;13300;51.032;3.710;2023-07-30T06:08:55;16.90;99.90
25346;DHT22;13300;51.032;3.710;2023-07-30T06:11:21;16.90;99.90
25346;DHT22;13300;51.032;3.710;2023-07-30T06:13:47;16.90;99.90
25346;DHT22;13300;51.032;3.710;2023-07-30T06:16:13;16.90;99.90
25346;DHT22;13300;51.032;3.710;2023-07-30T06:18:39;17.10;99.90
25346;DHT22;13300;51.032;3.710;2023-07-30T06:21:05;17.10;99.90
25346;DHT22;13300;51.032;3.710;2023-07-30T06:23:30;17.40;99.90
25346;DHT22;13300;51.032;3.710;2023-07-30T06:25:56;17.60;99.90
25346;DHT22;13300;51.032;3.710;2023-07-30T06:28:22;17.50;99.90
25346;DHT22;13300;51.032;3.710;2023-07-30T06:30:48;17.70;99.90
25346;DHT22;13300;51.032;3.710;2023-07-30T06:33:14;17.70;99.90
25346;DHT22;13300;51.032;3.710;2023-07-30T06:35:40;17.80;99.90
25346;DHT22;13300;51.032;3.710;2023-07-30T06:38:07;17.90;99.90
25346;DHT22;13300;51.032;3.710;2023-07-30T06:40:33;18.20;99.90
25346;DHT22;13300;51.032;3.710;2023-07-30T06:42:59;18.40;99.90
25346;DHT22;13300;51.032;3.710;2023-07-30T06:45:25;18.60;99.90
25346;DHT22;13300;51.032;3.710;2023-07-30T06:47:51;18.50;99.90
25346;DHT22;13300;51.032;3.710;2023-07-30T06:50:16;18.50;99.90
25346;DHT22;13300;51.032;3.710;2023-07-30T06:52:42;18.50;99.90
25346;DHT22;13300;51.032;3.710;2023-07-30T06:55:08;18.60;99.90
25346;DHT22;13300;51.032;3.710;2023-07-30T06:57:33;18.60;99.90
25346;DHT22;13300;51.032;3.710;2023-07-30T07:00:00;18.50;99.90
25346;DHT22;13300;51.032;3.710;2023-07-30T07:02:26;18.40;99.90
25346;DHT22;13300;51.032;3.710;2023-07-30T07:04:54;18.40;99.90
25346;DHT22;13300;51.032;3.710;2023-07-30T07:07:20;18.50;99.90
25346;DHT22;13300;51.032;3.710;2023-07-30T07:09:46;18.60;99.90
25346;DHT22;13300;51.032;3.710;2023-07-30T07:12:11;18.60;99.90
25346;DHT22;13300;51.032;3.710;2023-07-30T07:14:37;18.50;99.90
25346;DHT22;13300;51.032;3.710;2023-07-30T07:17:03;18.60;99.90
25346;DHT22;13300;51.032;3.710;2023-07-30T07:19:29;18.50;99.90
25346;DHT22;13300;51.032;3.710;2023-07-30T07:21:54;18.60;99.90
25346;DHT22;13300;51.032;3.710;2023-07-30T07:24:20;18.70;99.90
25346;DHT22;13300;51.032;3.710;2023-07-30T07:26:47;18.60;99.90
25346;DHT22;13300;51.032;3.710;2023-07-30T07:29:13;18.90;99.90
25346;DHT22;13300;51.032;3.710;2023-07-30T07:31:38;19.00;99.90
25346;DHT22;13300;51.032;3.710;2023-07-30T07:34:04;19.10;99.90
25346;DHT22;13300;51.032;3.710;2023-07-30T07:36:30;19.20;99.90
25346;DHT22;13300;51.032;3.710;2023-07-30T07:38:56;19.50;99.90
25346;DHT22;13300;51.032;3.710;2023-07-30T07:41:22;19.80;99.90
25346;DHT22;13300;51.032;3.710;2023-07-30T07:43:48;19.90;99.90
25346;DHT22;13300;51.032;3.710;2023-07-30T07:46:14;19.80;99.90
25346;DHT22;13300;51.032;3.710;2023-07-30T07:48:41;20.10;99.90
25346;DHT22;13300;51.032;3.710;2023-07-30T07:51:08;20.30;99.90
25346;DHT22;13300;51.032;3.710;2023-07-30T07:53:34;20.50;99.90
25346;DHT22;13300;51.032;3.710;2023-07-30T07:55:59;20.60;99.90
25346;DHT22;13300;51.032;3.710;2023-07-30T07:58:25;20.60;99.90
25346;DHT22;13300;51.032;3.710;2023-07-30T08:00:54;20.60;99.90
25346;DHT22;13300;51.032;3.710;2023-07-30T08:03:20;20.40;99.90
25346;DHT22;13300;51.032;3.710;2023-07-30T08:05:46;20.10;99.90
25346;DHT22;13300;51.032;3.710;2023-07-30T08:08:12;20.00;99.90
25346;DHT22;13300;51.032;3.710;2023-07-30T08:10:41;19.80;99.90
25346;DHT22;13300;51.032;3.710;2023-07-30T08:13:12;19.60;99.90
25346;DHT22;13300;51.032;3.710;2023-07-30T08:15:38;19.60;99.90
25346;DHT22;13300;51.032;3.710;2023-07-30T08:18:03;19.40;99.90
25346;DHT22;13300;51.032;3.710;2023-07-30T08:20:29;19.30;99.90
25346;DHT22;13300;51.032;3.710;2023-07-30T08:22:55;19.40;99.90
25346;DHT22;13300;51.032;3.710;2023-07-30T08:25:20;19.50;99.90
25346;DHT22;13300;51.032;3.710;2023-07-30T08:27:46;19.60;99.90
25346;DHT22;13300;51.032;3.710;2023-07-30T08:30:12;19.90;99.90
25346;DHT22;13300;51.032;3.710;2023-07-30T08:32:38;20.70;99.90
25346;DHT22;13300;51.032;3.710;2023-07-30T08:35:04;22.40;99.90
25346;DHT22;13300;51.032;3.710;2023-07-30T08:37:33;24.20;99.90
25346;DHT22;13300;51.032;3.710;2023-07-30T08:39:59;25.30;99.90
25346;DHT22;13300;51.032;3.710;2023-07-30T08:42:25;25.40;99.90
25346;DHT22;13300;51.032;3.710;2023-07-30T08:44:50;25.50;99.90
25346;DHT22;13300;51.032;3.710;2023-07-30T08:47:16;25.30;99.90
25346;DHT22;13300;51.032;3.710;2023-07-30T08:49:42;25.40;99.90
25346;DHT22;13300;51.032;3.710;2023-07-30T08:52:09;25.10;99.90
25346;DHT22;13300;51.032;3.710;2023-07-30T08:54:36;25.40;99.90
25346;DHT22;13300;51.032;3.710;2023-07-30T08:57:03;25.10;99.90
25346;DHT22;13300;51.032;3.710;2023-07-30T08:59:47;25.20;99.90
25346;DHT22;13300;51.032;3.710;2023-07-30T09:02:26;25.70;99.90
25346;DHT22;13300;51.032;3.710;2023-07-30T09:04:59;25.90;99.90
25346;DHT22;13300;51.032;3.710;2023-07-30T09:07:26;26.30;99.90
25346;DHT22;13300;51.032;3.710;2023-07-30T09:09:51;26.20;99.90
25346;DHT22;13300;51.032;3.710;2023-07-30T09:12:17;25.60;99.90
25346;DHT22;13300;51.032;3.710;2023-07-30T09:14:43;25.40;99.90
25346;DHT22;13300;51.032;3.710;2023-07-30T09:17:11;25.50;99.90
25346;DHT22;13300;51.032;3.710;2023-07-30T09:19:41;25.50;99.90
25346;DHT22;13300;51.032;3.710;2023-07-30T09:22:07;25.30;99.90
25346;DHT22;13300;51.032;3.710;2023-07-30T09:24:33;25.00;99.90
25346;DHT22;13300;51.032;3.710;2023-07-30T09:27:02;25.00;99.90
25346;DHT22;13300;51.032;3.710;2023-07-30T09:29:28;25.50;99.90
25346;DHT22;13300;51.032;3.710;2023-07-30T09:31:55;26.90;99.90
25346;DHT22;13300;51.032;3.710;2023-07-30T09:34:24;28.40;99.90
25346;DHT22;13300;51.032;3.710;2023-07-30T09:36:54;28.60;99.90
25346;DHT22;13300;51.032;3.710;2023-07-30T09:39:22;27.80;99.90
25346;DHT22;13300;51.032;3.710;2023-07-30T09:41:49;27.30;99.90
25346;DHT22;13300;51.032;3.710;2023-07-30T09:44:17;27.00;99.90
25346;DHT22;13300;51.032;3.710;2023-07-30T09:46:45;27.40;99.90
25346;DHT22;13300;51.032;3.710;2023-07-30T09:49:11;28.40;99.90
25346;DHT22;13300;51.032;3.710;2023-07-30T09:51:38;29.30;99.90
25346;DHT22;13300;51.032;3.710;2023-07-30T09:54:06;30.20;99.30
25346;DHT22;13300;51.032;3.710;2023-07-30T09:56:32;29.00;99.50
25346;DHT22;13300;51.032;3.710;2023-07-30T09:58:58;27.90;99.90
25346;DHT22;13300;51.032;3.710;2023-07-30T10:01:25;28.30;99.90
25346;DHT22;13300;51.032;3.710;2023-07-30T10:04:07;28.70;99.90
25346;DHT22;13300;51.032;3.710;2023-07-30T10:06:33;27.30;99.90
25346;DHT22;13300;51.032;3.710;2023-07-30T10:09:01;26.80;99.90
25346;DHT22;13300;51.032;3.710;2023-07-30T10:11:28;26.70;99.90
25346;DHT22;13300;51.032;3.710;2023-07-30T10:13:54;26.20;99.90
25346;DHT22;13300;51.032;3.710;2023-07-30T10:16:25;25.20;99.90
25346;DHT22;13300;51.032;3.710;2023-07-30T10:18:56;24.50;99.90
25346;DHT22;13300;51.032;3.710;2023-07-30T10:21:27;24.10;99.90
25346;DHT22;13300;51.032;3.710;2023-07-30T10:24:21;23.60;99.90
25346;DHT22;13300;51.032;3.710;2023-07-30T10:26:53;23.90;99.90
25346;DHT22;13300;51.032;3.710;2023-07-30T10:29:23;24.40;99.90
25346;DHT22;13300;51.032;3.710;2023-07-30T10:32:07;25.00;99.90
25346;DHT22;13300;51.032;3.710;2023-07-30T10:37:46;25.30;99.90
25346;DHT22;13300;51.032;3.710;2023-07-30T10:43:17;25.60;99.90
25346;DHT22;13300;51.032;3.710;2023-07-30T10:45:51;25.70;99.90
25346;DHT22;13300;51.032;3.710;2023-07-30T10:48:18;26.30;99.90
25346;DHT22;13300;51.032;3.710;2023-07-30T10:50:51;26.10;99.90
25346;DHT22;13300;51.032;3.710;2023-07-30T10:53:17;25.50;99.90
25346;DHT22;13300;51.032;3.710;2023-07-30T10:55:51;26.10;99.90
25346;DHT22;13300;51.032;3.710;2023-07-30T10:58:34;26.40;99.90
25346;DHT22;13300;51.032;3.710;2023-07-30T11:01:12;26.50;99.90
25346;DHT22;13300;51.032;3.710;2023-07-30T11:04:19;26.00;99.90
25346;DHT22;13300;51.032;3.710;2023-07-30T11:07:01;26.20;99.90
25346;DHT22;13300;51.032;3.710;2023-07-30T11:09:52;27.00;99.90
25346;DHT22;13300;51.032;3.710;2023-07-30T11:12:33;28.40;99.90
25346;DHT22;13300;51.032;3.710;2023-07-30T11:15:10;29.70;98.70
25346;DHT22;13300;51.032;3.710;2023-07-30T11:17:36;30.30;97.10
25346;DHT22;13300;51.032;3.710;2023-07-30T11:20:04;31.00;95.80
25346;DHT22;13300;51.032;3.710;2023-07-30T11:22:34;31.50;94.90
25346;DHT22;13300;51.032;3.710;2023-07-30T11:25:00;31.10;94.10
25346;DHT22;13300;51.032;3.710;2023-07-30T11:27:27;30.30;95.70
25346;DHT22;13300;51.032;3.710;2023-07-30T11:30:22;30.20;94.60
25346;DHT22;13300;51.032;3.710;2023-07-30T11:32:48;28.70;95.90
25346;DHT22;13300;51.032;3.710;2023-07-30T11:35:15;27.90;97.20
25346;DHT22;13300;51.032;3.710;2023-07-30T11:37:42;28.20;96.50
25346;DHT22;13300;51.032;3.710;2023-07-30T11:40:12;27.30;96.50
25346;DHT22;13300;51.032;3.710;2023-07-30T11:42:38;27.40;97.50
25346;DHT22;13300;51.032;3.710;2023-07-30T11:45:22;28.60;96.20
25346;DHT22;13300;51.032;3.710;2023-07-30T11:47:49;29.50;94.00
25346;DHT22;13300;51.032;3.710;2023-07-30T11:50:15;30.00;93.30
25346;DHT22;13300;51.032;3.710;2023-07-30T11:52:54;29.10;93.80
25346;DHT22;13300;51.032;3.710;2023-07-30T11:55:20;28.10;94.60
25346;DHT22;13300;51.032;3.710;2023-07-30T11:57:46;27.10;95.00
25346;DHT22;13300;51.032;3.710;2023-07-30T12:00:12;27.00;95.00
25346;DHT22;13300;51.032;3.710;2023-07-30T12:02:38;27.60;94.20
25346;DHT22;13300;51.032;3.710;2023-07-30T12:05:05;27.70;93.70
25346;DHT22;13300;51.032;3.710;2023-07-30T12:07:32;27.30;94.50
25346;DHT22;13300;51.032;3.710;2023-07-30T12:10:09;27.60;94.10
25346;DHT22;13300;51.032;3.710;2023-07-30T12:12:35;27.90;93.30
25346;DHT22;13300;51.032;3.710;2023-07-30T12:15:01;27.50;93.60
25346;DHT22;13300;51.032;3.710;2023-07-30T12:17:26;27.20;94.40
25346;DHT22;13300;51.032;3.710;2023-07-30T12:19:52;28.10;94.10
25346;DHT22;13300;51.032;3.710;2023-07-30T12:22:18;28.30;93.40
25346;DHT22;13300;51.032;3.710;2023-07-30T12:24:43;27.60;94.20
25346;DHT22;13300;51.032;3.710;2023-07-30T12:27:09;27.30;95.00
25346;DHT22;13300;51.032;3.710;2023-07-30T12:29:35;27.50;94.60
25346;DHT22;13300;51.032;3.710;2023-07-30T12:32:01;27.70;93.90
25346;DHT22;13300;51.032;3.710;2023-07-30T12:34:27;26.80;94.80
25346;DHT22;13300;51.032;3.710;2023-07-30T12:36:52;27.30;94.80
25346;DHT22;13300;51.032;3.710;2023-07-30T12:39:18;28.90;95.00
25346;DHT22;13300;51.032;3.710;2023-07-30T12:41:44;29.90;92.50
25346;DHT22;13300;51.032;3.710;2023-07-30T12:44:09;30.10;91.80
25346;DHT22;13300;51.032;3.710;2023-07-30T12:46:35;29.60;92.70
25346;DHT22;13300;51.032;3.710;2023-07-30T12:49:01;29.40;92.00
25346;DHT22;13300;51.032;3.710;2023-07-30T12:51:33;29.70;91.00
25346;DHT22;13300;51.032;3.710;2023-07-30T12:53:59;29.80;90.40
25346;DHT22;13300;51.032;3.710;2023-07-30T12:56:26;30.00;90.40
25346;DHT22;13300;51.032;3.710;2023-07-30T12:58:52;29.90;90.00
25346;DHT22;13300;51.032;3.710;2023-07-30T13:01:18;29.70;90.50
25346;DHT22;13300;51.032;3.710;2023-07-30T13:03:43;28.90;90.80
25346;DHT22;13300;51.032;3.710;2023-07-30T13:06:13;29.30;91.30
25346;DHT22;13300;51.032;3.710;2023-07-30T13:08:39;30.20;90.40
25346;DHT22;13300;51.032;3.710;2023-07-30T13:11:07;30.70;90.30
25346;DHT22;13300;51.032;3.710;2023-07-30T13:13:33;30.10;89.30
25346;DHT22;13300;51.032;3.710;2023-07-30T13:15:59;29.10;91.30
25346;DHT22;13300;51.032;3.710;2023-07-30T13:18:27;29.00;91.50
25346;DHT22;13300;51.032;3.710;2023-07-30T13:20:56;28.90;91.50
25346;DHT22;13300;51.032;3.710;2023-07-30T13:23:23;29.30;91.90
25346;DHT22;13300;51.032;3.710;2023-07-30T13:25:52;28.40;92.50
25346;DHT22;13300;51.032;3.710;2023-07-30T13:28:25;27.60;93.50
25346;DHT22;13300;51.032;3.710;2023-07-30T13:31:02;27.20;95.10
25346;DHT22;13300;51.032;3.710;2023-07-30T13:33:39;26.60;96.00
25346;DHT22;13300;51.032;3.710;2023-07-30T13:36:13;25.90;97.00
25346;DHT22;13300;51.032;3.710;2023-07-30T13:38:44;25.30;98.00
25346;DHT22;13300;51.032;3.710;2023-07-30T13:41:12;24.90;99.40
25346;DHT22;13300;51.032;3.710;2023-07-30T13:43:44;24.50;99.90
25346;DHT22;13300;51.032;3.710;2023-07-30T13:49:33;24.10;99.90
25346;DHT22;13300;51.032;3.710;2023-07-30T13:51:59;24.70;99.90
25346;DHT22;13300;51.032;3.710;2023-07-30T13:54:25;25.00;99.90
25346;DHT22;13300;51.032;3.710;2023-07-30T13:56:53;24.90;99.90
25346;DHT22;13300;51.032;3.710;2023-07-30T13:59:19;24.80;99.90
25346;DHT22;13300;51.032;3.710;2023-07-30T14:01:45;24.90;99.90
25346;DHT22;13300;51.032;3.710;2023-07-30T14:04:19;24.60;99.90
25346;DHT22;13300;51.032;3.710;2023-07-30T14:06:51;24.30;99.90
25346;DHT22;13300;51.032;3.710;2023-07-30T14:09:22;23.90;99.90
25346;DHT22;13300;51.032;3.710;2023-07-30T14:11:50;24.20;99.90
25346;DHT22;13300;51.032;3.710;2023-07-30T14:14:17;24.60;99.90
25346;DHT22;13300;51.032;3.710;2023-07-30T14:16:43;24.60;99.90
25346;DHT22;13300;51.032;3.710;2023-07-30T14:19:09;24.40;99.90
25346;DHT22;13300;51.032;3.710;2023-07-30T14:21:37;24.10;99.90
25346;DHT22;13300;51.032;3.710;2023-07-30T14:24:07;23.70;99.90
25346;DHT22;13300;51.032;3.710;2023-07-30T14:26:48;23.50;99.90
25346;DHT22;13300;51.032;3.710;2023-07-30T14:29:14;23.30;99.90
25346;DHT22;13300;51.032;3.710;2023-07-30T14:31:44;23.00;99.90
25346;DHT22;13300;51.032;3.710;2023-07-30T14:34:18;22.80;99.90
25346;DHT22;13300;51.032;3.710;2023-07-30T14:36:48;22.70;99.90
25346;DHT22;13300;51.032;3.710;2023-07-30T14:39:14;22.60;99.90
25346;DHT22;13300;51.032;3.710;2023-07-30T14:41:45;22.40;99.90
25346;DHT22;13300;51.032;3.710;2023-07-30T14:44:13;22.10;99.90
25346;DHT22;13300;51.032;3.710;2023-07-30T14:46:45;21.90;99.90
25346;DHT22;13300;51.032;3.710;2023-07-30T14:49:20;21.70;99.90
25346;DHT22;13300;51.032;3.710;2023-07-30T14:51:46;21.80;99.90
25346;DHT22;13300;51.032;3.710;2023-07-30T14:54:14;21.80;99.90
25346;DHT22;13300;51.032;3.710;2023-07-30T14:56:40;21.50;99.90
25346;DHT22;13300;51.032;3.710;2023-07-30T14:59:06;21.40;99.90
25346;DHT22;13300;51.032;3.710;2023-07-30T15:01:32;21.20;99.90
25346;DHT22;13300;51.032;3.710;2023-07-30T15:04:04;21.10;99.90
25346;DHT22;13300;51.032;3.710;2023-07-30T15:06:30;21.10;99.90
25346;DHT22;13300;51.032;3.710;2023-07-30T15:08:56;20.90;99.90
25346;DHT22;13300;51.032;3.710;2023-07-30T15:11:25;20.60;99.90
25346;DHT22;13300;51.032;3.710;2023-07-30T15:13:56;20.50;99.90
25346;DHT22;13300;51.032;3.710;2023-07-30T15:16:25;20.40;99.90
25346;DHT22;13300;51.032;3.710;2023-07-30T15:18:53;20.40;99.90
25346;DHT22;13300;51.032;3.710;2023-07-30T15:21:24;20.50;99.90
25346;DHT22;13300;51.032;3.710;2023-07-30T15:24:31;20.30;99.90
25346;DHT22;13300;51.032;3.710;2023-07-30T15:27:02;20.10;99.90
25346;DHT22;13300;51.032;3.710;2023-07-30T15:29:30;20.00;99.90
25346;DHT22;13300;51.032;3.710;2023-07-30T15:32:02;19.90;99.90
25346;DHT22;13300;51.032;3.710;2023-07-30T15:34:44;19.90;99.90
25346;DHT22;13300;51.032;3.710;2023-07-30T15:37:12;19.70;99.90
25346;DHT22;13300;51.032;3.710;2023-07-30T15:39:41;19.70;99.90
25346;DHT22;13300;51.032;3.710;2023-07-30T15:42:33;19.60;99.90